Latest Coastal Weather Observations for Nullarbor

IDS60701

Issued at 4:51 am CST Thursday 24 August 2017 (issued every 10 minutes, with the page automatically refreshed every 10 minutes)

About coastal observations | Map of coastal stations | Coastal observations for SA | Marine services | Other Formats
Station Details ID: 018106 Name: NULLARBOR Lat: -31.45 Lon: 130.90 Height: 64.0 m
Data from the previous 72 hours. | See also: Recent months at Nullarbor
Date/Time
CST
Temp
°C
Wind Pressure Rain since
9am
mm
Weather Cloud Vis
km
Sea
Height
m
Swell
Dir  Spd
kts
Gust
kts
hPa Trend Height
m
Period
s
Dir
24/04:30am 6.9 CALM 0 0 1028.7 - 0.0 - Partly cloudy 10 - - - -
24/04:00am 7.5 SE 4 5 1028.5 - 0.0 - Partly cloudy 10 - - - -
24/03:30am 7.4 SE 8 9 1028.4 - 0.0 - Partly cloudy 10 - - - -
24/03:00am 9.5 SSE 8 10 1028.5 - 0.0 - Partly cloudy 10 - - - -
24/02:30am 9.3 SSE 6 7 1028.7 - 0.0 - Partly cloudy 10 - - - -
24/02:00am 9.4 SE 4 5 1028.8 - 0.0 - - 10 - - - -
24/01:30am 10.1 SSE 7 9 1028.8 - 0.0 - - 10 - - - -
24/01:00am 10.9 SSE 9 11 1028.9 - 0.0 - - 10 - - - -
24/12:30am 11.0 SSE 8 10 1029.0 - 0.0 - - 10 - - - -
24/12:00am 11.4 SSE 9 10 1028.9 - 0.0 - - 10 - - - -
 
Date/Time
CST
Temp
°C
Wind Pressure Rain since
9am
mm
Weather Cloud Vis
km
Sea
Height
m
Swell
Dir  Spd
kts
Gust
kts
hPa Trend Height
m
Period
s
Dir
23/11:30pm 11.7 SSE 9 11 1028.9 - 0.0 - - 10 - - - -
23/11:00pm 11.8 SSE 9 11 1028.7 - 0.0 - - 10 - - - -
23/10:30pm 12.0 S 10 13 1028.7 - 0.0 - - 10 - - - -
23/10:00pm 11.9 SSE 9 11 1028.6 - 0.0 - - 10 - - - -
23/09:30pm 12.4 SSE 9 11 1028.6 - 0.0 - - 10 - - - -
23/09:00pm 12.8 SSE 9 11 1028.6 - 0.0 - - 10 - - - -
23/08:30pm 13.3 SSE 9 14 1028.1 - 0.0 - Partly cloudy 10 - - - -
23/08:00pm 12.9 SSE 9 12 1027.8 - 0.0 - - 10 - - - -
23/07:30pm 13.2 SSE 9 12 1027.6 - 0.0 - - 10 - - - -
23/07:00pm 13.7 SSE 9 11 1027.3 - 0.0 - Partly cloudy 10 - - - -
23/06:30pm 14.3 SSE 12 16 1027.0 - 0.0 - Partly cloudy 10 - - - -
23/06:00pm 15.0 SSE 14 19 1026.3 - 0.0 - - 10 - - - -
23/05:30pm 15.9 SSE 15 19 1025.9 - 0.0 - - 10 - - - -
23/05:00pm 16.7 SSE 15 20 1025.5 - 0.0 - Partly cloudy 10 - - - -
23/04:30pm 16.9 SSE 15 19 1025.5 - 0.0 - Partly cloudy 10 - - - -
23/04:00pm 18.0 SSE 15 19 1025.1 - 0.0 - Partly cloudy 10 - - - -
23/03:30pm 18.2 SSE 15 18 1024.8 - 0.0 - - 10 - - - -
23/03:00pm 19.3 SSE 15 19 1024.7 - 0.0 - - 10 - - - -
23/02:30pm 19.3 SSE 14 19 1024.7 - 0.0 - - 10 - - - -
23/02:00pm 19.8 SSE 13 17 1024.8 - 0.0 - - 10 - - - -
23/01:30pm 19.9 S 12 17 1024.9 - 0.0 - - 10 - - - -
23/01:00pm 19.9 S 12 16 1025.1 - 0.0 - - 10 - - - -
23/12:30pm 18.9 S 12 15 1025.3 - 0.0 - - 10 - - - -
23/12:00pm 19.8 S 12 16 1025.4 - 0.0 - - 10 - - - -
23/11:30am 20.1 S 6 9 1025.4 - 0.0 - - 10 - - - -
23/11:00am 18.8 W 1 5 1025.4 - 0.0 - - 10 - - - -
23/10:30am 17.6 NNW 2 6 1025.3 - 0.0 - - 10 - - - -
23/10:00am 16.1 N 6 8 1025.4 - 0.0 - - 10 - - - -
23/09:30am 14.8 NE 5 8 1025.4 - 0.0 - - 10 - - - -
23/09:00am 13.2 E 4 6 1025.3 - 0.0 - - 10 - - - -
23/08:30am 10.4 S 6 9 1024.8 - 0.0 - - 10 - - - -
23/08:00am 8.0 E 4 5 1024.3 - 0.0 - - 10 - - - -
23/07:30am 7.1 SSE 6 10 1024.0 - 0.0 - - 10 - - - -
23/07:00am 4.9 NNE 9 10 1023.3 - 0.0 - - 10 - - - -
23/06:30am 5.2 NNE 9 9 1022.9 - 0.0 - - 10 - - - -
23/06:00am 5.4 NNE 9 10 1022.6 - 0.0 - - 10 - - - -
23/05:30am 4.6 NNE 10 10 1022.5 - 0.0 - - 10 - - - -
23/05:00am 3.9 NNE 8 10 1022.4 - 0.0 - - 10 - - - -
23/04:30am 3.9 E 4 5 1022.3 - 0.0 - - 10 - - - -
23/04:00am 5.3 ENE 4 4 1022.3 - 0.0 - - 10 - - - -
23/03:30am 5.1 ENE 4 5 1022.3 - 0.0 - - 10 - - - -
23/03:00am 6.7 ENE 6 9 1022.4 - 0.0 - Partly cloudy 10 - - - -
23/02:30am 6.2 NE 9 10 1022.4 - 0.0 - - 10 - - - -
23/02:00am 5.8 NE 9 10 1022.5 - 0.0 - - 10 - - - -
23/01:30am 5.7 NE 9 10 1022.6 - 0.0 - - 10 - - - -
23/01:00am 6.9 NE 9 9 1022.4 - 0.0 - - 10 - - - -
23/12:30am 6.7 NE 9 10 1022.3 - 0.0 - - 10 - - - -
23/12:00am 6.9 ENE 9 9 1022.4 - 0.0 - Mostly cloudy 10 - - - -
 
Date/Time
CST
Temp
°C
Wind Pressure Rain since
9am
mm
Weather Cloud Vis
km
Sea
Height
m
Swell
Dir  Spd
kts
Gust
kts
hPa Trend Height
m
Period
s
Dir
22/11:30pm 7.1 E 9 10 1022.4 - 0.0 - - 10 - - - -
22/11:00pm 8.1 E 9 9 1022.5 - 0.0 - - 10 - - - -
22/10:30pm 9.2 E 9 9 1022.6 - 0.0 - - 10 - - - -
22/10:00pm 8.9 ESE 9 9 1022.6 - 0.0 - - 10 - - - -
22/09:30pm 9.6 ESE 8 8 1022.4 - 0.0 - - 10 - - - -
22/09:00pm 10.9 ESE 9 9 1022.2 - 0.0 - Mostly cloudy 10 - - - -
22/08:30pm 10.5 E 8 10 1021.9 - 0.0 - - 10 - - - -
22/08:00pm 11.2 ESE 8 9 1021.8 - 0.0 - - 10 - - - -
22/07:30pm 12.0 ESE 8 9 1021.6 - 0.0 - - 10 - - - -
22/07:00pm 13.2 ESE 7 9 1021.4 - 0.0 - - 10 - - - -
22/06:30pm 14.8 ESE 9 12 1021.3 - 0.0 - - 10 - - - -
22/06:00pm 16.6 SE 11 14 1021.3 - 0.0 - - 10 - - - -
22/05:30pm 17.8 SE 13 17 1021.0 - 0.0 - - 10 - - - -
22/05:00pm 18.7 SE 14 17 1021.0 - 0.0 - - 10 - - - -
22/04:30pm 19.4 SE 13 18 1020.7 - 0.0 - - 10 - - - -
22/04:00pm 20.7 SW 7 15 1020.7 - 0.0 - - 10 - - - -
22/03:30pm 21.9 N 4 8 1021.0 - 0.0 - - 10 - - - -
22/03:00pm 21.8 N 6 14 1021.0 - 0.0 - - 10 - - - -
22/02:30pm 20.7 N 7 10 1021.2 - 0.0 - - 10 - - - -
22/02:00pm 19.7 WNW 7 9 1021.6 - 0.0 - - 10 - - - -
22/01:30pm 20.4 NNW 6 10 1022.1 - 0.0 - - 10 - - - -
22/01:00pm 19.5 E 5 8 1022.4 - 0.0 - - 10 - - - -
22/12:30pm 18.7 NW 6 12 1022.8 - 0.0 - - 10 - - - -
22/12:00pm 18.7 NE 5 7 1023.1 - 0.0 - - 10 - - - -
22/11:30am 18.2 NNE 8 11 1023.7 - 0.0 - - 10 - - - -
22/11:00am 17.8 NNE 9 13 1023.9 - 0.0 - - 10 - - - -
22/10:30am 16.8 N 11 13 1024.2 - 0.0 - - 10 - - - -
22/10:00am 15.5 NNE 11 14 1024.0 - 0.0 - - 10 - - - -
22/09:30am 14.0 NNE 11 13 1023.9 - 0.0 - - 10 - - - -
22/09:00am 11.9 NNE 9 11 1023.8 - 0.0 - - 10 - - - -
22/08:30am 8.8 N 8 9 1024.0 - 0.0 - - 10 - - - -
22/08:00am 5.8 N 7 9 1023.7 - 0.0 - - 10 - - - -
22/07:30am 3.3 N 8 9 1023.4 - 0.0 - - 10 - - - -
22/07:00am 3.1 N 9 9 1023.3 - 0.0 - - 10 - - - -
22/06:30am 2.8 NNE 9 10 1023.1 - 0.0 - - 10 - - - -
22/06:00am 3.3 NNE 9 10 1022.8 - 0.0 - - 10 - - - -
22/05:30am 3.7 NNE 9 9 1022.8 - 0.0 - - 10 - - - -
22/05:00am 3.6 NNE 8 9 1022.4 - 0.0 - - 10 - - - -
22/04:30am 4.2 NNE 7 8 1022.6 - 0.0 - - 10 - - - -
22/04:00am 4.2 NNE 6 6 1022.6 - 0.0 - - 10 - - - -
22/03:30am 5.2 NNE 5 6 1022.4 - 0.0 - - 10 - - - -
22/03:00am 5.5 NE 5 6 1022.5 - 0.0 - - 10 - - - -
22/02:30am 5.3 NNE 5 5 1022.6 - 0.0 - - 10 - - - -
22/02:00am 5.9 NNE 5 5 1022.8 - 0.0 - - 10 - - - -
22/01:30am 6.8 NNE 3 4 1022.8 - 0.0 - - 10 - - - -
22/01:00am 7.9 CALM 0 0 1023.0 - 0.0 - - 10 - - - -
22/12:30am 8.8 E 3 4 1022.9 - 0.0 - - 10 - - - -
22/12:00am 9.7 SE 3 6 1023.0 - 0.0 - - 10 - - - -
 
Date/Time
CST
Temp
°C
Wind Pressure Rain since
9am
mm
Weather Cloud Vis
km
Sea
Height
m
Swell
Dir  Spd
kts
Gust
kts
hPa Trend Height
m
Period
s
Dir
21/11:30pm 10.6 SE 4 5 1023.2 - 0.0 - - 10 - - - -
21/11:00pm 13.0 SSE 4 7 1023.4 - 0.0 - Partly cloudy 10 - - - -
21/10:30pm 13.1 CALM 0 0 1023.6 - 0.0 - Cloudy 10 - - - -
21/10:00pm 13.0 SE 2 3 1023.4 - 0.0 - Cloudy 10 - - - -
21/09:30pm 13.1 SSE 4 6 1023.3 - 0.0 - Cloudy 10 - - - -
21/09:00pm 13.4 SE 4 5 1023.0 - 0.0 - Cloudy 10 - - - -
21/08:30pm 13.6 CALM 0 3 1023.1 - 0.0 - Cloudy 10 - - - -
21/08:00pm 13.6 NW 3 5 1022.9 - 0.0 - Cloudy 10 - - - -
21/07:30pm 13.7 CALM 0 2 1022.8 - 0.0 - Cloudy 10 - - - -
21/07:00pm 13.7 S 7 10 1022.5 - 0.0 - Cloudy 10 - - - -
21/06:30pm 13.9 SSW 8 10 1022.3 - 0.0 - Cloudy 10 - - - -
21/06:00pm 14.1 SSW 9 11 1022.0 - 0.0 - Cloudy 10 - - - -
21/05:30pm 14.0 SSW 13 16 1021.6 - 0.0 - Partly cloudy 10 - - - -
21/05:00pm 14.6 S 10 12 1021.5 - 0.0 - Cloudy 10 - - - -
21/04:30pm 15.1 SSW 12 16 1021.2 - 0.0 - Cloudy 10 - - - -
21/04:00pm 16.3 SSW 13 19 1021.1 - 0.0 - Cloudy 10 - - - -
21/03:30pm 16.0 SSW 14 19 1021.0 - 0.0 - Cloudy 10 - - - -
21/03:00pm 16.8 SSW 15 21 1021.0 - 0.0 - Mostly cloudy 10 - - - -
21/02:30pm 16.6 SSW 15 19 1021.2 - 0.0 - Cloudy 10 - - - -
21/02:00pm 16.5 SSW 16 21 1021.1 - 0.0 - Cloudy 10 - - - -
21/01:30pm 16.4 SSW 14 20 1021.3 - 0.0 - Partly cloudy 10 - - - -
21/01:00pm 16.3 SSW 15 20 1021.6 - 0.0 - Cloudy 10 - - - -
21/12:30pm 16.4 SSW 16 22 1021.5 - 0.0 - Partly cloudy 10 - - - -
21/12:00pm 16.2 SSW 16 22 1021.6 - 0.0 - Partly cloudy 10 - - - -
21/11:30am 16.0 SSW 16 22 1021.6 - 0.0 - Partly cloudy 10 - - - -
21/11:00am 15.1 SW 16 21 1021.6 - 0.0 - Cloudy 10 - - - -
21/10:30am 14.8 SW 16 20 1021.5 - 0.0 - Partly cloudy 10 - - - -
21/10:00am 14.6 SW 16 22 1021.3 - 0.0 - Partly cloudy 10 - - - -
21/09:30am 13.2 SW 16 21 1021.0 - 0.0 - Partly cloudy 10 - - - -
21/09:00am 14.0 SW 13 18 1020.6 - 0.8 - Cloudy 10 - - - -
21/08:30am 13.9 SW 13 18 1019.9 - 0.8 - Cloudy 10 - - - -
21/08:00am 13.0 SW 14 18 1019.3 - 0.8 - Cloudy 10 - - - -
21/07:30am 12.1 SW 9 13 1018.6 - 0.8 - Partly cloudy 10 - - - -
21/07:00am 12.9 SW 11 15 1018.0 - 0.6 - Partly cloudy 10 - - - -
21/06:30am 12.7 SW 13 17 1017.7 - 0.6 - Partly cloudy 10 - - - -
21/06:00am 12.3 SW 12 17 1017.4 - 0.6 - Cloudy 10 - - - -
21/05:30am 13.5 WSW 14 18 1016.9 - 0.6 - Cloudy 10 - - - -
21/05:00am 13.1 SW 12 17 1016.5 - 0.6 - Partly cloudy 10 - - - -

Other Formats:

Comma delimited format used in spreadsheet applications
http://www.bom.gov.au/fwo/IDS60701/IDS60701.94651.axf

JavaScript Object Notation format (JSON) in row-major order
http://www.bom.gov.au/fwo/IDS60701/IDS60701.94651.json